METAR COR LDZA 162230Z 35005KT 320V050 9999 -RA SCT007 18/17 Q1018 BECMG 05010KT TEMPO TSRA BKN007 FEW035CB BKN040 =
METAR LDZA 162200Z 13012KT 110V170 9999 -RA FEW020 18/17 Q1018 BECMG 05010KT TEMPO TSRA FEW035CB BKN040 =
METAR LDZA 162130Z 27009KT 230V320 9999 -RA FEW020 18/16 Q1017 RERA TEMPO +TSRA FEW035CB BKN040 =
METAR LDZA 162100Z 23005KT 200V280 9999 TSRA FEW035CB 20/17 Q1018 TEMPO VRB15KT 4000 =
METAR LDZA 162030Z 32003KT 260V010 9999 -RA FEW033CB 23/17 Q1018 TEMPO VRB15KT 4000 TSRA =
METAR LDZA 162000Z 28007KT 250V330 9999 TS FEW040CB 23/16 Q1017 TEMPO VRB15KT 4000 TSRA =
METAR LDZA 161930Z 05012G24KT 010V110 9999 TS FEW040CB 24/17 Q1015 TEMPO VRB20G30KT 4000 TSRAGR =
METAR COR LDZA 161900Z 03020KT 350V080 9999 VCTS FEW040CB 25/16 Q1015 TEMPO VRB25G35KT 4000 TSRAGR =
METAR COR LDZA 161830Z 03020G33KT 360V070 9999 FEW040CB SCT047 26/16 Q1013 BECMG VRB15G30KT 4000 TSRA SCT025CB BKN045 =
METAR LDZA 161800Z 04014G26KT 340V140 9999 BKN047 27/17 Q1013 TEMPO TSRA FEW040CB =
METAR LDZA 161730Z 05013KT 010V100 9999 FEW048 27/18 Q1013 TEMPO TSRA FEW040CB =
METAR COR LDZA 161700Z 05013KT 350V100 9999 FEW040 28/19 Q1012 TEMPO TSRA FEW040CB =
METAR LDZA 161630Z 05013KT 350V110 9999 FEW040TCU 28/19 Q1012 TEMPO TSRA FEW040CB =
METAR LDZA 161600Z 06011KT 010V110 9999 FEW040TCU 28/19 Q1012 TEMPO TSRA FEW040CB =
METAR LDZA 161530Z 04014KT 350V100 9999 FEW040TCU 30/20 Q1012 NOSIG =
METAR LDZA 161500Z 06011KT 350V120 9999 FEW043 31/20 Q1012 NOSIG =
METAR LDZA 161430Z 05010KT 010V100 9999 FEW043 31/20 Q1012 NOSIG =
METAR LDZA 161400Z 05010KT 350V110 9999 FEW043 31/20 Q1012 NOSIG =
METAR LDZA 161330Z 05008KT 330V100 9999 FEW043 31/20 Q1012 NOSIG =
METAR LDZA 161300Z 02006KT 320V100 9999 FEW043 31/19 Q1012 NOSIG =
METAR LDZA 161230Z 03009KT 350V080 9999 FEW043 30/20 Q1012 NOSIG =
METAR LDZA 161200Z 02008KT 330V090 9999 FEW040 31/20 Q1013 NOSIG =
METAR LDZA 161130Z VRB07KT 9999 FEW040 31/20 Q1013 NOSIG =
METAR LDZA 161100Z 02008KT 330V090 9999 FEW040 30/19 Q1013 NOSIG =
METAR LDZA 161030Z VRB04KT CAVOK 30/21 Q1013 BECMG 05008KT =
METAR LDZA 161000Z 03004KT 310V110 CAVOK 30/18 Q1013 BECMG 05008KT =
METAR LDZA 160930Z VRB02KT CAVOK 29/20 Q1013 NOSIG =
METAR LDZA 160900Z VRB03KT CAVOK 29/21 Q1013 NOSIG =
METAR LDZA 160830Z VRB02KT CAVOK 28/19 Q1013 NOSIG =
METAR LDZA 160800Z VRB03KT CAVOK 28/19 Q1013 BECMG 05008KT =
METAR LDZA 160730Z VRB02KT CAVOK 27/19 Q1013 BECMG 05008KT =
METAR LDZA 160700Z VRB02KT CAVOK 25/19 Q1012 BECMG 05008KT =
METAR LDZA 160630Z VRB01KT CAVOK 24/19 Q1013 BECMG 05008KT =
METAR LDZA 160600Z 26003KT 240V320 CAVOK 22/19 Q1012 NOSIG =
METAR LDZA 160530Z 25004KT CAVOK 21/19 Q1012 NOSIG =
METAR LDZA 160500Z 24004KT 210V270 CAVOK 20/18 Q1012 NOSIG =
METAR LDZA 160430Z VRB02KT CAVOK 19/18 Q1012 NOSIG =
METAR LDZA 160400Z 34002KT CAVOK 18/16 Q1012 NOSIG =
METAR LDZA 160330Z VRB01KT CAVOK 18/17 Q1012 NOSIG =
METAR LDZA 160300Z 19003KT CAVOK 19/18 Q1011 NOSIG =
METAR LDZA 160230Z VRB02KT CAVOK 19/18 Q1011 NOSIG =
METAR LDZA 160200Z VRB02KT CAVOK 19/18 Q1011 NOSIG =
METAR LDZA 160130Z VRB02KT CAVOK 19/18 Q1011 NOSIG =
METAR LDZA 160100Z 24003KT CAVOK 19/18 Q1011 NOSIG =
METAR LDZA 160030Z 22003KT CAVOK 20/18 Q1011 NOSIG =
METAR LDZA 160000Z 23003KT 200V260 CAVOK 20/19 Q1012 NOSIG =
METAR LDZA 152330Z 27004KT CAVOK 20/17 Q1012 NOSIG =
METAR LDZA 152300Z VRB02KT CAVOK 20/15 Q1012 NOSIG =
METAR LDZA 152230Z 02003KT CAVOK 21/16 Q1012 NOSIG =
METAR LDZA 152200Z 03003KT CAVOK 22/16 Q1012 NOSIG =
METAR LDZA 152130Z 03003KT 350V070 CAVOK 22/16 Q1012 NOSIG =
METAR LDZA 152100Z 00000KT CAVOK 23/17 Q1012 NOSIG =
METAR LDZA 152030Z 00000KT CAVOK 23/20 Q1012 NOSIG =
METAR LDZA 152000Z 00000KT CAVOK 23/21 Q1012 NOSIG =
METAR LDZA 151930Z 00000KT CAVOK 24/20 Q1012 NOSIG =
METAR LDZA 151900Z 00000KT CAVOK 25/21 Q1011 NOSIG =
METAR LDZA 151830Z 00000KT CAVOK 26/21 Q1011 NOSIG =
METAR LDZA 151800Z 00000KT CAVOK 27/21 Q1011 NOSIG =
METAR LDZA 151730Z 00000KT CAVOK 30/20 Q1011 NOSIG =
METAR LDZA 151700Z 00000KT CAVOK 30/19 Q1012 NOSIG =
METAR LDZA 151630Z VRB01KT CAVOK 29/20 Q1012 NOSIG =
METAR LDZA 151600Z 22004KT 190V260 CAVOK 30/20 Q1012 NOSIG =
METAR LDZA 151530Z VRB02KT CAVOK 31/18 Q1012 NOSIG =
METAR LDZA 151500Z VRB02KT CAVOK 30/16 Q1013 NOSIG =
METAR LDZA 151430Z VRB03KT CAVOK 30/18 Q1013 NOSIG =
METAR LDZA 151400Z 11007KT 070V150 CAVOK 29/20 Q1013 NOSIG =
METAR LDZA 151330Z 11006KT 060V140 CAVOK 28/21 Q1013 NOSIG =
METAR LDZA 151300Z 09005KT 040V150 CAVOK 29/21 Q1013 NOSIG =
METAR LDZA 151230Z 10004KT 050V150 CAVOK 29/20 Q1014 NOSIG =
METAR LDZA 151200Z VRB03KT CAVOK 29/18 Q1014 NOSIG =
METAR LDZA 151130Z VRB01KT CAVOK 30/18 Q1014 NOSIG =
METAR LDZA 151100Z VRB01KT CAVOK 29/20 Q1015 NOSIG =